createdAt,value
2018-08-12T00:00:19.827Z,24.78
2018-08-12T00:05:23.619Z,24.74
2018-08-12T00:10:27.412Z,24.65
2018-08-12T00:15:31.210Z,24.59
2018-08-12T00:20:35.031Z,24.65
2018-08-12T00:25:38.750Z,24.65
2018-08-12T00:30:42.487Z,24.56
2018-08-12T00:35:46.178Z,24.53
2018-08-12T00:40:49.879Z,24.60
2018-08-12T00:45:53.617Z,24.64
2018-08-12T00:50:57.370Z,24.60
2018-08-12T00:56:01.194Z,24.58
2018-08-12T01:01:04.890Z,24.51
2018-08-12T01:06:08.605Z,24.45
2018-08-12T01:11:12.404Z,24.46
2018-08-12T01:16:16.090Z,24.41
2018-08-12T01:21:20.055Z,24.32
2018-08-12T01:26:23.816Z,24.30
2018-08-12T01:31:27.549Z,24.27
2018-08-12T01:36:31.307Z,24.27
2018-08-12T01:41:35.060Z,24.24
2018-08-12T01:46:38.752Z,24.18
2018-08-12T01:51:42.433Z,24.16
2018-08-12T01:56:46.173Z,24.09
2018-08-12T02:01:49.870Z,24.08
2018-08-12T02:06:53.633Z,24.04
2018-08-12T02:11:57.386Z,24.04
2018-08-12T02:17:01.089Z,24.03
2018-08-12T02:22:04.894Z,24.04
2018-08-12T02:27:08.585Z,24.03
2018-08-12T02:32:12.272Z,23.93
2018-08-12T02:37:16.030Z,23.93
2018-08-12T02:42:19.705Z,23.92
2018-08-12T02:47:23.459Z,23.93
2018-08-12T02:52:27.142Z,23.93
2018-08-12T02:57:30.832Z,23.93
2018-08-12T03:02:34.852Z,23.87
2018-08-12T03:07:38.612Z,23.85
2018-08-12T03:12:42.444Z,23.77
2018-08-12T03:17:46.113Z,23.73
2018-08-12T03:22:49.805Z,23.64
2018-08-12T03:27:53.478Z,23.62
2018-08-12T03:32:57.223Z,23.62
2018-08-12T03:38:00.933Z,23.42
2018-08-12T03:43:04.979Z,23.40
2018-08-12T03:48:08.633Z,23.25
2018-08-12T03:53:12.317Z,23.17
2018-08-12T03:58:16.082Z,23.24
2018-08-12T04:03:19.802Z,23.18
2018-08-12T04:08:23.605Z,23.18
2018-08-12T04:13:27.438Z,23.16
2018-08-12T04:18:31.175Z,23.21
2018-08-12T04:23:34.850Z,23.19
2018-08-12T04:28:38.537Z,23.27
2018-08-12T04:33:42.226Z,23.23
2018-08-12T04:38:45.991Z,23.23
2018-08-12T04:43:49.678Z,23.37
2018-08-12T04:48:53.405Z,23.39
2018-08-12T04:53:57.210Z,23.31
2018-08-12T04:59:02.232Z,23.31
2018-08-12T05:04:06.073Z,23.34
2018-08-12T05:09:12.157Z,23.33
2018-08-12T05:14:15.940Z,23.36
2018-08-12T05:19:19.699Z,23.40
2018-08-12T05:24:24.993Z,23.43
2018-08-12T05:29:28.880Z,23.40
2018-08-12T05:34:35.478Z,23.50
2018-08-12T05:39:39.258Z,23.50
2018-08-12T05:44:43.274Z,23.55
2018-08-12T05:49:47.193Z,23.58
2018-08-12T05:54:50.959Z,23.63
2018-08-12T05:59:54.669Z,23.63
2018-08-12T06:04:58.431Z,23.66
2018-08-12T06:10:03.189Z,23.66
2018-08-12T06:15:09.639Z,23.71
2018-08-12T06:20:13.751Z,23.75
2018-08-12T06:25:17.487Z,23.86
2018-08-12T06:30:21.431Z,23.87
2018-08-12T06:35:25.312Z,23.92
2018-08-12T06:40:29.092Z,24.01
2018-08-12T06:45:32.849Z,24.05
2018-08-12T06:50:36.657Z,24.09
2018-08-12T06:55:40.365Z,24.12
2018-08-12T07:00:44.351Z,24.17
2018-08-12T07:05:48.090Z,23.25
2018-08-12T07:10:51.843Z,22.62
2018-08-12T07:15:55.600Z,22.73
2018-08-12T07:20:59.322Z,22.83
2018-08-12T07:26:02.990Z,22.82
2018-08-12T07:31:06.726Z,22.83
2018-08-12T07:36:10.605Z,22.79
2018-08-12T07:41:14.358Z,23.02
2018-08-12T07:46:18.193Z,23.07
2018-08-12T07:51:21.992Z,23.18
2018-08-12T07:56:25.794Z,23.03
2018-08-12T08:01:29.463Z,23.15
2018-08-12T08:06:33.214Z,23.50
2018-08-12T08:11:37.022Z,23.57
2018-08-12T08:16:40.904Z,23.38
2018-08-12T08:21:44.633Z,23.52
2018-08-12T08:26:48.355Z,23.69
2018-08-12T08:31:52.313Z,23.80
2018-08-12T08:36:55.853Z,23.83
2018-08-12T08:41:59.612Z,23.83
2018-08-12T08:47:03.410Z,23.97
2018-08-12T08:52:07.462Z,24.06
2018-08-12T08:57:11.173Z,24.14
2018-08-12T09:02:14.918Z,24.21
2018-08-12T09:07:18.661Z,24.17
2018-08-12T09:12:22.334Z,24.26
2018-08-12T09:17:25.969Z,24.27
2018-08-12T09:22:29.770Z,24.32
2018-08-12T09:27:33.600Z,24.35
2018-08-12T09:32:37.527Z,24.30
2018-08-12T09:37:41.322Z,24.33
2018-08-12T09:42:45.642Z,24.26
2018-08-12T09:47:49.375Z,24.40
2018-08-12T09:52:54.170Z,24.44
2018-08-12T09:57:57.773Z,24.45
2018-08-12T10:03:01.506Z,24.45
2018-08-12T10:08:05.209Z,24.49
2018-08-12T10:13:08.916Z,24.52
2018-08-12T10:18:12.674Z,24.58
2018-08-12T10:23:16.371Z,24.71
2018-08-12T10:28:20.098Z,24.61
2018-08-12T10:33:23.820Z,24.53
2018-08-12T10:38:27.507Z,24.64
2018-08-12T10:43:31.281Z,24.70
2018-08-12T10:48:35.082Z,24.76
2018-08-12T10:53:38.876Z,24.81
2018-08-12T10:58:42.679Z,24.87
2018-08-12T11:03:46.504Z,24.91
2018-08-12T11:08:50.396Z,24.99
2018-08-12T11:13:54.210Z,25.01
2018-08-12T11:18:58.074Z,24.89
2018-08-12T11:24:01.786Z,24.87
2018-08-12T11:29:06.130Z,24.89
2018-08-12T11:34:10.319Z,24.91
2018-08-12T11:39:14.059Z,24.99
2018-08-12T11:44:17.759Z,24.94
2018-08-12T11:49:21.515Z,24.96
2018-08-12T11:54:25.336Z,24.97
2018-08-12T11:59:29.133Z,24.99
2018-08-12T12:04:32.964Z,25.00
2018-08-12T12:09:36.993Z,25.03
2018-08-12T12:14:40.759Z,25.05
2018-08-12T12:19:44.511Z,25.08
2018-08-12T12:24:48.294Z,25.08
2018-08-12T12:29:52.150Z,25.08
2018-08-12T12:34:55.822Z,25.11
2018-08-12T12:39:59.774Z,25.12
2018-08-12T12:45:03.903Z,25.17
2018-08-12T12:50:12.144Z,25.21
2018-08-12T12:55:15.895Z,25.26
2018-08-12T13:00:20.868Z,25.32
2018-08-12T13:05:24.571Z,25.37
2018-08-12T13:10:28.291Z,25.43
2018-08-12T13:15:32.031Z,25.45
2018-08-12T13:20:36.873Z,25.49
2018-08-12T13:25:40.781Z,25.53
2018-08-12T13:30:44.539Z,25.55
2018-08-12T13:35:48.242Z,25.58
2018-08-12T13:40:52.053Z,25.62
2018-08-12T13:45:55.847Z,25.65
2018-08-12T13:50:59.746Z,25.66
2018-08-12T13:56:03.470Z,25.76
2018-08-12T14:01:07.206Z,25.69
2018-08-12T14:06:10.938Z,25.85
2018-08-12T14:11:14.702Z,25.90
2018-08-12T14:16:18.394Z,25.74
2018-08-12T14:21:22.135Z,25.73
2018-08-12T14:26:26.953Z,25.77
2018-08-12T14:31:30.625Z,25.81
2018-08-12T14:36:34.289Z,25.84
2018-08-12T14:41:38.122Z,25.89
2018-08-12T14:46:41.835Z,25.89
2018-08-12T14:51:45.606Z,25.83
2018-08-12T14:56:49.321Z,25.88
2018-08-12T15:01:52.991Z,25.86
2018-08-12T15:06:56.808Z,25.88
2018-08-12T15:12:00.633Z,25.87
2018-08-12T15:17:04.393Z,25.81
2018-08-12T15:22:08.075Z,25.89
2018-08-12T15:27:11.778Z,25.87
2018-08-12T15:32:15.513Z,25.92
2018-08-12T15:37:19.236Z,25.93
2018-08-12T15:42:22.943Z,25.93
2018-08-12T15:47:26.550Z,25.91
2018-08-12T15:52:31.803Z,25.96
2018-08-12T15:57:35.870Z,25.95
2018-08-12T16:02:39.838Z,25.98
2018-08-12T16:07:44.281Z,25.98
2018-08-12T16:12:49.479Z,25.98
2018-08-12T16:17:53.270Z,26.00
2018-08-12T16:22:56.940Z,26.00
2018-08-12T16:28:00.668Z,25.98
2018-08-12T16:33:04.471Z,25.96
2018-08-12T16:38:08.410Z,26.00
2018-08-12T16:43:12.109Z,25.99
2018-08-12T16:48:15.790Z,25.99
2018-08-12T16:53:19.746Z,25.87
2018-08-12T16:58:23.938Z,25.92
2018-08-12T17:03:27.759Z,25.95
2018-08-12T17:08:31.870Z,25.98
2018-08-12T17:13:35.932Z,25.97
2018-08-12T17:18:39.902Z,26.02
2018-08-12T17:23:44.385Z,26.02
2018-08-12T17:28:48.636Z,25.97
2018-08-12T17:33:52.721Z,26.03
2018-08-12T17:38:56.403Z,26.05
2018-08-12T17:44:00.134Z,26.05
2018-08-12T17:49:03.910Z,26.10
2018-08-12T17:54:07.727Z,26.11
2018-08-12T17:59:11.383Z,26.08
2018-08-12T18:04:15.081Z,26.16
2018-08-12T18:09:18.757Z,26.18
2018-08-12T18:14:22.551Z,26.21
2018-08-12T18:19:26.239Z,26.21
2018-08-12T18:24:29.981Z,26.20
2018-08-12T18:29:33.775Z,26.14
2018-08-12T18:34:37.498Z,26.15
2018-08-12T18:39:41.132Z,26.11
2018-08-12T18:44:46.103Z,26.17
2018-08-12T18:49:49.922Z,26.15
2018-08-12T18:54:53.570Z,26.13
2018-08-12T18:59:57.305Z,26.15
2018-08-12T19:05:01.180Z,26.14
2018-08-12T19:10:06.665Z,26.14
2018-08-12T19:15:11.467Z,26.16
2018-08-12T19:20:15.258Z,26.14
2018-08-12T19:25:19.015Z,26.06
2018-08-12T19:30:22.765Z,26.04
2018-08-12T19:35:26.346Z,26.09
2018-08-12T19:40:29.903Z,26.05
2018-08-12T19:55:09.181Z,26.03
2018-08-12T20:00:14.661Z,25.99
2018-08-12T20:05:18.571Z,25.99
2018-08-12T20:10:23.290Z,26.14
2018-08-12T20:15:28.233Z,26.11
2018-08-12T20:20:32.319Z,26.09
2018-08-12T20:25:36.470Z,26.08
2018-08-12T20:30:41.818Z,26.04
2018-08-12T20:35:47.694Z,26.04
2018-08-12T20:40:54.048Z,26.05
2018-08-12T20:45:58.361Z,26.02
2018-08-12T20:51:02.755Z,25.98
2018-08-12T20:56:06.808Z,26.00
2018-08-12T21:01:15.272Z,25.97
2018-08-12T21:06:20.414Z,25.96
2018-08-12T21:11:26.452Z,25.95
2018-08-12T21:16:31.690Z,25.93
2018-08-12T21:21:35.411Z,25.90
2018-08-12T21:26:39.120Z,25.90
2018-08-12T21:31:42.750Z,25.85
2018-08-12T21:36:46.389Z,25.81
2018-08-12T21:41:50.001Z,25.79
2018-08-12T21:46:53.655Z,25.77
2018-08-12T21:51:57.220Z,25.79
2018-08-12T21:57:00.870Z,25.76
2018-08-12T22:02:04.678Z,25.75
2018-08-12T22:07:08.447Z,25.73
2018-08-12T22:12:12.145Z,25.72
2018-08-12T22:17:15.851Z,25.68
2018-08-12T22:22:19.685Z,25.68
2018-08-12T22:27:23.545Z,25.67
2018-08-12T22:32:27.209Z,25.65
2018-08-12T22:37:30.851Z,25.64
2018-08-12T22:42:34.586Z,25.63
2018-08-12T22:47:38.242Z,25.61
2018-08-12T22:52:53.120Z,25.59
2018-08-12T22:57:56.847Z,25.58
2018-08-12T23:03:00.468Z,25.55
2018-08-12T23:08:07.281Z,25.54
2018-08-12T23:13:10.935Z,25.56
2018-08-12T23:18:14.859Z,25.54
2018-08-12T23:23:18.521Z,25.51
2018-08-12T23:28:22.114Z,25.50
2018-08-12T23:33:25.727Z,25.49
2018-08-12T23:38:29.513Z,25.48
2018-08-12T23:43:33.198Z,25.48
2018-08-12T23:48:37.226Z,25.45
2018-08-12T23:53:40.876Z,25.44
2018-08-12T23:58:44.551Z,25.41
